createdAt,value
2024-01-20T00:01:12.777Z,100.00
2024-01-20T00:04:46.652Z,100.00
2024-01-20T00:11:18.792Z,100.00
2024-01-20T00:14:20.627Z,100.00
2024-01-20T00:17:25.841Z,100.00
2024-01-20T00:20:29.700Z,100.00
2024-01-20T00:23:35.542Z,100.00
2024-01-20T00:26:38.710Z,100.00
2024-01-20T00:29:41.412Z,100.00
2024-01-20T00:32:43.152Z,100.00
2024-01-20T00:35:46.376Z,100.00
2024-01-20T00:38:48.143Z,100.00
2024-01-20T00:41:53.512Z,100.00
2024-01-20T00:44:55.617Z,100.00
2024-01-20T00:47:57.240Z,100.00
2024-01-20T00:50:58.811Z,100.00
2024-01-20T00:54:00.372Z,100.00
2024-01-20T00:57:03.564Z,100.00
2024-01-20T01:03:35.562Z,100.00
2024-01-20T01:06:37.424Z,100.00
2024-01-20T01:09:39.913Z,100.00
2024-01-20T01:12:42.983Z,100.00
2024-01-20T01:15:44.522Z,100.00
2024-01-20T01:18:46.109Z,100.00
2024-01-20T01:21:47.713Z,100.00
2024-01-20T01:24:49.273Z,100.00
2024-01-20T01:27:52.244Z,100.00
2024-01-20T01:30:53.823Z,100.00
2024-01-20T01:33:55.449Z,100.00
2024-01-20T01:36:57.047Z,100.00
2024-01-20T01:39:58.611Z,100.00
2024-01-20T01:43:01.598Z,100.00
2024-01-20T01:46:03.374Z,100.00
2024-01-20T01:49:05.029Z,100.00
2024-01-20T01:52:07.049Z,100.00
2024-01-20T01:55:08.945Z,100.00
2024-01-20T01:58:11.833Z,100.00
2024-01-20T02:01:13.745Z,100.00
2024-01-20T02:04:15.836Z,100.00
2024-01-20T02:07:17.655Z,100.00
2024-01-20T02:10:19.312Z,100.00
2024-01-20T02:13:22.516Z,100.00
2024-01-20T02:16:24.097Z,100.00
2024-01-20T02:19:25.799Z,100.00
2024-01-20T02:22:28.740Z,100.00
2024-01-20T02:25:30.351Z,100.00
2024-01-20T02:28:32.219Z,100.00
2024-01-20T02:31:33.852Z,100.00
2024-01-20T02:34:35.589Z,100.00
2024-01-20T02:37:38.870Z,100.00
2024-01-20T02:40:40.433Z,100.00
2024-01-20T02:43:42.020Z,100.00
2024-01-20T02:46:43.526Z,100.00
2024-01-20T02:49:45.158Z,100.00
2024-01-20T02:52:48.401Z,100.00
2024-01-20T02:55:50.273Z,100.00
2024-01-20T02:58:51.930Z,100.00
2024-01-20T03:01:53.525Z,100.00
2024-01-20T03:04:55.138Z,100.00
2024-01-20T03:07:58.309Z,100.00
2024-01-20T03:11:00.045Z,100.00
2024-01-20T03:14:01.604Z,100.00
2024-01-20T03:17:03.621Z,100.00
2024-01-20T03:20:06.756Z,100.00
2024-01-20T03:23:09.939Z,100.00
2024-01-20T03:26:11.502Z,100.00
2024-01-20T03:29:13.288Z,100.00
2024-01-20T03:32:14.870Z,100.00
2024-01-20T03:35:16.484Z,100.00
2024-01-20T03:38:19.468Z,100.00
2024-01-20T03:41:21.110Z,100.00
2024-01-20T03:44:22.644Z,100.00
2024-01-20T03:47:24.233Z,100.00
2024-01-20T03:50:27.044Z,100.00
2024-01-20T03:53:30.027Z,100.00
2024-01-20T03:56:31.636Z,100.00
2024-01-20T03:59:33.315Z,100.00
2024-01-20T04:02:34.961Z,100.00
2024-01-20T04:05:36.527Z,100.00
2024-01-20T04:08:39.993Z,100.00
2024-01-20T04:11:41.522Z,100.00
2024-01-20T04:14:43.067Z,100.00
2024-01-20T04:17:44.739Z,100.00
2024-01-20T04:20:46.418Z,100.00
2024-01-20T04:23:50.033Z,100.00
2024-01-20T04:26:51.731Z,100.00
2024-01-20T04:29:53.329Z,100.00
2024-01-20T04:32:55.273Z,100.00
2024-01-20T04:35:56.913Z,100.00
2024-01-20T04:39:00.442Z,100.00
2024-01-20T04:42:02.013Z,100.00
2024-01-20T04:45:04.152Z,100.00
2024-01-20T04:48:06.361Z,100.00
2024-01-20T04:51:08.882Z,100.00
2024-01-20T04:54:11.871Z,100.00
2024-01-20T04:57:13.666Z,100.00
2024-01-20T05:00:15.702Z,100.00
2024-01-20T05:03:17.308Z,100.00
2024-01-20T05:06:19.042Z,100.00
2024-01-20T05:09:22.148Z,100.00
2024-01-20T05:12:23.830Z,100.00
2024-01-20T05:15:25.483Z,100.00
2024-01-20T05:18:27.256Z,100.00
2024-01-20T05:21:28.855Z,100.00
2024-01-20T05:24:31.831Z,100.00
2024-01-20T05:27:33.600Z,100.00
2024-01-20T05:30:35.395Z,100.00
2024-01-20T05:33:37.342Z,100.00
2024-01-20T05:36:39.463Z,100.00
2024-01-20T05:39:42.318Z,100.00
2024-01-20T05:42:44.209Z,100.00
2024-01-20T05:45:45.814Z,100.00
2024-01-20T05:48:47.578Z,100.00
2024-01-20T05:51:49.269Z,100.00
2024-01-20T05:54:53.974Z,100.00
2024-01-20T05:57:55.653Z,100.00
2024-01-20T06:00:57.308Z,100.00
2024-01-20T06:03:58.951Z,100.00
2024-01-20T06:07:00.555Z,100.00
2024-01-20T06:10:03.711Z,100.00
2024-01-20T06:13:05.306Z,100.00
2024-01-20T06:16:07.593Z,100.00
2024-01-20T06:19:09.292Z,100.00
2024-01-20T06:22:10.870Z,100.00
2024-01-20T06:25:13.828Z,100.00
2024-01-20T06:28:15.345Z,100.00
2024-01-20T06:31:23.902Z,100.00
2024-01-20T06:34:25.772Z,100.00
2024-01-20T06:37:27.339Z,100.00
2024-01-20T06:40:30.579Z,100.00
2024-01-20T06:43:32.148Z,100.00
2024-01-20T06:46:33.925Z,100.00
2024-01-20T06:49:39.049Z,100.00
2024-01-20T06:52:42.299Z,100.00
2024-01-20T06:55:46.334Z,100.00
2024-01-20T06:58:47.896Z,100.00
2024-01-20T07:01:49.559Z,100.00
2024-01-20T07:04:51.367Z,100.00
2024-01-20T07:07:52.909Z,100.00
2024-01-20T07:10:55.798Z,100.00
2024-01-20T07:13:57.487Z,100.00
2024-01-20T07:16:59.044Z,100.00
2024-01-20T07:20:00.601Z,100.00
2024-01-20T07:23:02.326Z,100.00
2024-01-20T07:26:05.261Z,100.00
2024-01-20T07:29:07.091Z,100.00
2024-01-20T07:32:08.663Z,100.00
2024-01-20T07:35:10.563Z,100.00
2024-01-20T07:38:44.464Z,100.00
2024-01-20T07:41:49.278Z,100.00
2024-01-20T07:44:51.104Z,100.00
2024-01-20T07:47:52.731Z,100.00
2024-01-20T07:50:54.602Z,100.00
2024-01-20T07:53:56.136Z,100.00
2024-01-20T07:56:59.162Z,100.00
2024-01-20T08:03:30.122Z,100.00
2024-01-20T08:06:31.868Z,100.00
2024-01-20T08:10:06.535Z,100.00
2024-01-20T08:13:09.427Z,100.00
2024-01-20T08:16:11.297Z,100.00
2024-01-20T08:19:13.105Z,100.00
2024-01-20T08:22:14.994Z,100.00
2024-01-20T08:25:16.629Z,100.00
2024-01-20T08:28:20.685Z,100.00
2024-01-20T08:31:22.822Z,100.00
2024-01-20T08:34:24.750Z,100.00
2024-01-20T08:37:26.401Z,100.00
2024-01-20T08:40:28.033Z,100.00
2024-01-20T08:43:31.390Z,100.00
2024-01-20T08:46:32.964Z,100.00
2024-01-20T08:49:34.637Z,100.00
2024-01-20T08:52:36.183Z,100.00
2024-01-20T08:55:37.896Z,100.00
2024-01-20T08:58:40.882Z,100.00
2024-01-20T09:01:42.417Z,100.00
2024-01-20T09:08:45.482Z,100.00
2024-01-20T09:12:18.962Z,100.00
2024-01-20T09:15:21.928Z,100.00
2024-01-20T09:18:27.601Z,100.00
2024-01-20T09:21:29.270Z,100.00
2024-01-20T09:25:02.917Z,100.00
2024-01-20T09:28:36.687Z,100.00
2024-01-20T09:31:39.545Z,100.00
2024-01-20T09:34:41.223Z,100.00
2024-01-20T09:37:42.812Z,100.00
2024-01-20T09:41:17.270Z,100.00
2024-01-20T09:44:19.279Z,100.00
2024-01-20T09:47:22.400Z,100.00
2024-01-20T09:50:24.646Z,100.00
2024-01-20T09:53:26.212Z,100.00
2024-01-20T09:56:27.816Z,100.00
2024-01-20T10:03:01.886Z,100.00
2024-01-20T10:06:04.268Z,100.00
2024-01-20T10:09:06.714Z,100.00
2024-01-20T10:12:08.653Z,100.00
2024-01-20T10:15:10.395Z,100.00
2024-01-20T10:18:45.428Z,100.00
2024-01-20T10:21:47.062Z,100.00
2024-01-20T10:24:49.169Z,100.00
2024-01-20T10:27:51.316Z,100.00
2024-01-20T10:31:24.793Z,100.00
2024-01-20T10:34:27.755Z,100.00
2024-01-20T10:37:30.614Z,100.00
2024-01-20T10:40:32.966Z,100.00
2024-01-20T10:43:37.353Z,100.00
2024-01-20T10:46:40.645Z,100.00
2024-01-20T10:49:47.241Z,100.00
2024-01-20T10:52:49.035Z,100.00
2024-01-20T10:59:22.223Z,100.00
2024-01-20T11:02:24.505Z,100.00
2024-01-20T11:06:00.426Z,100.00
2024-01-20T11:09:02.400Z,100.00
2024-01-20T11:12:05.878Z,100.00
2024-01-20T11:15:08.215Z,100.00
2024-01-20T11:18:19.980Z,100.00
2024-01-20T11:21:23.087Z,100.00
2024-01-20T11:24:56.911Z,100.00
2024-01-20T11:27:58.615Z,100.00
2024-01-20T11:31:00.343Z,100.00
2024-01-20T11:34:04.178Z,100.00
2024-01-20T11:37:08.844Z,100.00
2024-01-20T11:40:11.221Z,100.00
2024-01-20T11:43:12.890Z,100.00
2024-01-20T11:46:14.756Z,100.00
2024-01-20T11:49:16.367Z,100.00
2024-01-20T11:52:19.478Z,100.00
2024-01-20T11:55:21.058Z,100.00
2024-01-20T11:58:22.792Z,100.00
2024-01-20T12:01:24.609Z,100.00
2024-01-20T12:04:28.376Z,100.00
2024-01-20T12:07:31.369Z,100.00
2024-01-20T12:10:33.586Z,100.00
2024-01-20T12:13:35.696Z,100.00
2024-01-20T12:16:37.087Z,100.00
2024-01-20T12:19:39.085Z,100.00
2024-01-20T12:22:42.004Z,100.00
2024-01-20T12:25:44.088Z,100.00
2024-01-20T12:28:45.891Z,100.00
2024-01-20T12:31:47.399Z,100.00
2024-01-20T12:34:48.955Z,100.00
2024-01-20T12:37:52.207Z,100.00
2024-01-20T12:40:53.774Z,100.00
2024-01-20T12:43:55.364Z,100.00
2024-01-20T12:46:56.984Z,100.00
2024-01-20T12:49:58.604Z,100.00
2024-01-20T12:56:31.178Z,100.00
2024-01-20T12:59:32.751Z,100.00
2024-01-20T13:02:34.285Z,100.00
2024-01-20T13:05:35.896Z,100.00
2024-01-20T13:08:38.926Z,100.00
2024-01-20T13:11:40.581Z,100.00
2024-01-20T13:14:43.556Z,100.00
2024-01-20T13:17:45.176Z,100.00
2024-01-20T13:20:46.718Z,100.00
2024-01-20T13:23:49.979Z,100.00
2024-01-20T13:26:51.557Z,100.00
2024-01-20T13:33:22.585Z,100.00
2024-01-20T13:36:24.234Z,100.00
2024-01-20T13:39:27.209Z,100.00
2024-01-20T13:42:28.883Z,100.00
2024-01-20T13:45:30.489Z,100.00
2024-01-20T13:48:32.358Z,100.00
2024-01-20T13:51:34.226Z,100.00
2024-01-20T13:54:37.270Z,100.00
2024-01-20T13:57:38.839Z,100.00
2024-01-20T14:00:40.524Z,100.00
2024-01-20T14:03:42.231Z,100.00
2024-01-20T14:06:44.310Z,100.00
2024-01-20T14:09:47.543Z,100.00
2024-01-20T14:12:49.245Z,100.00
2024-01-20T14:15:51.361Z,100.00
2024-01-20T14:18:52.937Z,100.00
2024-01-20T14:21:54.591Z,100.00
2024-01-20T14:24:57.449Z,100.00
2024-01-20T14:27:58.985Z,100.00
2024-01-20T14:31:00.770Z,100.00
2024-01-20T14:34:02.774Z,100.00
2024-01-20T14:37:06.851Z,100.00
2024-01-20T14:40:12.142Z,100.00
2024-01-20T14:43:13.681Z,100.00
2024-01-20T14:46:15.284Z,100.00
2024-01-20T14:49:16.945Z,100.00
2024-01-20T14:52:18.584Z,100.00
2024-01-20T14:55:21.602Z,100.00
2024-01-20T14:58:23.109Z,100.00
2024-01-20T15:01:24.709Z,100.00
2024-01-20T15:04:26.461Z,100.00
2024-01-20T15:07:29.691Z,100.00
2024-01-20T15:10:33.857Z,100.00
2024-01-20T15:13:35.326Z,100.00
2024-01-20T15:16:36.852Z,100.00
2024-01-20T15:19:38.664Z,100.00
2024-01-20T15:22:40.376Z,100.00
2024-01-20T15:25:43.406Z,100.00
2024-01-20T15:28:44.968Z,100.00
2024-01-20T15:31:46.472Z,100.00
2024-01-20T15:34:48.119Z,100.00
2024-01-20T15:37:49.790Z,100.00
2024-01-20T15:40:52.640Z,100.00
2024-01-20T15:43:54.176Z,100.00
2024-01-20T15:46:55.686Z,100.00
2024-01-20T15:49:57.232Z,100.00
2024-01-20T15:52:58.770Z,100.00
2024-01-20T15:56:01.670Z,100.00
2024-01-20T15:59:03.277Z,100.00
2024-01-20T16:02:04.831Z,100.00
2024-01-20T16:05:06.773Z,100.00
2024-01-20T16:08:08.724Z,100.00
2024-01-20T16:11:11.702Z,100.00
2024-01-20T16:14:13.222Z,100.00
2024-01-20T16:17:14.736Z,100.00
2024-01-20T16:20:16.370Z,100.00
2024-01-20T16:23:17.947Z,100.00
2024-01-20T16:26:21.394Z,100.00
2024-01-20T16:29:22.964Z,100.00
2024-01-20T16:32:57.304Z,100.00
2024-01-20T16:35:58.850Z,100.00
2024-01-20T16:39:00.372Z,100.00
2024-01-20T16:42:03.749Z,100.00
2024-01-20T16:45:06.444Z,100.00
2024-01-20T16:48:08.276Z,100.00
2024-01-20T16:51:42.286Z,100.00
2024-01-20T16:54:43.882Z,100.00
2024-01-20T16:57:46.796Z,100.00
2024-01-20T17:00:48.777Z,100.00
2024-01-20T17:03:50.557Z,100.00
2024-01-20T17:06:52.139Z,100.00
2024-01-20T17:09:53.688Z,100.00
2024-01-20T17:12:56.761Z,100.00
2024-01-20T17:15:58.297Z,100.00
2024-01-20T17:19:01.470Z,100.00
2024-01-20T17:22:03.019Z,100.00
2024-01-20T17:25:04.842Z,100.00
2024-01-20T17:28:07.732Z,100.00
2024-01-20T17:31:09.301Z,100.00
2024-01-20T17:34:11.035Z,100.00
2024-01-20T17:37:12.677Z,100.00
2024-01-20T17:40:14.436Z,100.00
2024-01-20T17:46:47.598Z,100.00
2024-01-20T17:49:49.222Z,100.00
2024-01-20T17:52:50.718Z,100.00
2024-01-20T17:55:52.415Z,100.00
2024-01-20T17:59:27.437Z,100.00
2024-01-20T18:02:29.026Z,100.00
2024-01-20T18:05:30.565Z,100.00
2024-01-20T18:08:32.584Z,100.00
2024-01-20T18:11:34.365Z,100.00
2024-01-20T18:14:37.482Z,100.00
2024-01-20T18:18:12.607Z,100.00
2024-01-20T18:21:14.348Z,100.00
2024-01-20T18:24:15.944Z,100.00
2024-01-20T18:27:17.536Z,100.00
2024-01-20T18:30:20.428Z,100.00
2024-01-20T18:33:22.684Z,100.00
2024-01-20T18:36:24.414Z,100.00
2024-01-20T18:42:55.626Z,100.00
2024-01-20T18:46:30.547Z,100.00
2024-01-20T18:49:32.142Z,100.00
2024-01-20T18:53:06.310Z,100.00
2024-01-20T18:56:08.093Z,100.00
2024-01-20T18:59:41.952Z,100.00
2024-01-20T19:03:17.525Z,100.00
2024-01-20T19:06:19.052Z,100.00
2024-01-20T19:09:53.508Z,100.00
2024-01-20T19:12:55.831Z,100.00
2024-01-20T19:15:57.533Z,100.00
2024-01-20T19:19:00.687Z,100.00
2024-01-20T19:22:02.295Z,100.00
2024-01-20T19:25:04.235Z,100.00
2024-01-20T19:28:05.765Z,100.00
2024-01-20T19:31:08.705Z,100.00
2024-01-20T19:34:11.653Z,100.00
2024-01-20T19:40:42.634Z,100.00
2024-01-20T19:47:13.385Z,100.00
2024-01-20T19:50:16.389Z,100.00
2024-01-20T19:53:17.952Z,100.00
2024-01-20T19:56:19.538Z,100.00
2024-01-20T19:59:21.062Z,100.00
2024-01-20T20:02:22.639Z,100.00
2024-01-20T20:05:28.865Z,100.00
2024-01-20T20:08:30.414Z,100.00
2024-01-20T20:11:31.942Z,100.00
2024-01-20T20:14:33.683Z,100.00
2024-01-20T20:18:07.617Z,100.00
2024-01-20T20:24:46.097Z,100.00
2024-01-20T20:27:48.344Z,100.00
2024-01-20T20:30:54.745Z,100.00
2024-01-20T20:34:02.863Z,100.00
2024-01-20T20:37:37.461Z,100.00
2024-01-20T20:40:39.020Z,100.00
2024-01-20T20:43:40.580Z,100.00
2024-01-20T20:46:42.089Z,100.00
2024-01-20T20:53:13.795Z,98.52
2024-01-20T20:59:44.594Z,96.08
2024-01-20T21:02:46.249Z,97.22
2024-01-20T21:05:47.870Z,94.96
2024-01-20T21:08:50.770Z,94.25
2024-01-20T21:11:52.315Z,93.42
2024-01-20T21:15:26.492Z,91.47
2024-01-20T21:18:28.108Z,90.58
2024-01-20T21:25:00.275Z,88.26
2024-01-20T21:28:01.789Z,88.30
2024-01-20T21:31:03.389Z,86.77
2024-01-20T21:34:05.021Z,84.99
2024-01-20T21:37:06.590Z,84.79
2024-01-20T21:40:10.358Z,85.22
2024-01-20T21:43:11.884Z,85.30
2024-01-20T21:46:13.375Z,86.52
2024-01-20T21:49:14.969Z,86.14
2024-01-20T21:52:16.578Z,85.75
2024-01-20T21:55:19.634Z,84.95
2024-01-20T21:58:53.419Z,86.61
2024-01-20T22:01:55.020Z,86.89
2024-01-20T22:04:56.537Z,86.09
2024-01-20T22:07:58.323Z,86.42
2024-01-20T22:11:33.413Z,86.95
2024-01-20T22:14:34.921Z,85.93
2024-01-20T22:17:36.449Z,85.06
2024-01-20T22:20:38.045Z,84.01
2024-01-20T22:23:39.835Z,83.06
2024-01-20T22:26:42.659Z,83.64
2024-01-20T22:29:44.871Z,81.58
2024-01-20T22:36:15.568Z,81.04
2024-01-20T22:39:17.168Z,79.96
2024-01-20T22:42:20.119Z,79.96
2024-01-20T22:45:21.764Z,80.20
2024-01-20T22:48:55.219Z,80.84
2024-01-20T22:51:56.857Z,80.72
2024-01-20T22:54:58.538Z,81.58
2024-01-20T22:58:08.217Z,81.55
2024-01-20T23:01:10.056Z,79.28
2024-01-20T23:04:11.760Z,78.45
2024-01-20T23:07:14.502Z,78.95
2024-01-20T23:13:46.869Z,80.68
2024-01-20T23:16:48.393Z,79.25
2024-01-20T23:19:50.470Z,80.49
2024-01-20T23:22:51.968Z,80.36
2024-01-20T23:29:29.907Z,79.82
2024-01-20T23:36:00.420Z,81.02
2024-01-20T23:39:34.003Z,80.14
2024-01-20T23:42:35.682Z,77.60
2024-01-20T23:45:38.617Z,77.19
2024-01-20T23:48:40.250Z,77.49
2024-01-20T23:52:14.575Z,75.81
2024-01-20T23:55:48.209Z,74.21
2024-01-20T23:58:49.748Z,75.16
